createdAt,value
2019-05-19T00:00:51.531Z,21.80
2019-05-19T00:03:22.515Z,22.50
2019-05-19T00:05:53.091Z,21.57
2019-05-19T00:08:23.752Z,25.65
2019-05-19T00:10:54.598Z,21.77
2019-05-19T00:13:25.833Z,27.02
2019-05-19T00:15:56.771Z,20.55
2019-05-19T00:18:27.388Z,21.15
2019-05-19T00:20:59.967Z,23.42
2019-05-19T00:23:30.902Z,21.17
2019-05-19T00:26:01.849Z,20.67
2019-05-19T00:28:32.783Z,20.88
2019-05-19T00:31:03.678Z,22.75
2019-05-19T00:33:34.594Z,21.63
2019-05-19T00:36:05.332Z,22.60
2019-05-19T00:38:36.524Z,21.85
2019-05-19T00:41:07.871Z,22.97
2019-05-19T00:43:38.953Z,20.20
2019-05-19T00:46:11.010Z,21.70
2019-05-19T00:48:41.699Z,21.55
2019-05-19T00:51:15.576Z,22.97
2019-05-19T00:53:47.053Z,23.07
2019-05-19T00:56:19.041Z,20.70
2019-05-19T00:58:51.032Z,20.77
2019-05-19T01:01:22.203Z,21.37
2019-05-19T01:03:53.503Z,19.83
2019-05-19T01:06:25.655Z,20.20
2019-05-19T01:08:59.309Z,21.10
2019-05-19T01:11:31.055Z,24.60
2019-05-19T01:14:02.503Z,19.60
2019-05-19T01:16:33.573Z,21.15
2019-05-19T01:19:04.295Z,19.85
2019-05-19T01:21:35.788Z,19.93
2019-05-19T01:24:06.794Z,20.20
2019-05-19T01:26:37.647Z,23.52
2019-05-19T01:29:08.386Z,21.25
2019-05-19T01:31:39.279Z,20.93
2019-05-19T01:34:09.882Z,23.02
2019-05-19T01:36:40.796Z,23.13
2019-05-19T01:39:12.354Z,21.10
2019-05-19T01:41:43.245Z,20.83
2019-05-19T01:44:14.569Z,22.55
2019-05-19T01:46:45.392Z,22.27
2019-05-19T01:49:18.473Z,21.45
2019-05-19T01:51:50.661Z,22.23
2019-05-19T01:54:22.182Z,20.00
2019-05-19T01:56:53.357Z,20.47
2019-05-19T01:59:24.613Z,19.60
2019-05-19T02:01:55.725Z,22.17
2019-05-19T02:04:26.596Z,20.30
2019-05-19T02:06:57.591Z,23.27
2019-05-19T02:09:28.478Z,22.37
2019-05-19T02:11:59.354Z,22.00
2019-05-19T02:14:30.833Z,24.32
2019-05-19T02:17:02.457Z,23.67
2019-05-19T02:19:33.103Z,21.05
2019-05-19T02:22:03.801Z,21.82
2019-05-19T02:24:35.335Z,22.48
2019-05-19T02:27:06.140Z,22.80
2019-05-19T02:29:39.714Z,22.52
2019-05-19T02:32:11.700Z,22.48
2019-05-19T02:34:43.012Z,21.07
2019-05-19T02:37:15.396Z,23.05
2019-05-19T02:39:46.514Z,25.20
2019-05-19T02:42:24.904Z,23.70
2019-05-19T02:44:57.685Z,21.87
2019-05-19T02:47:29.556Z,23.02
2019-05-19T02:50:03.780Z,21.93
2019-05-19T02:52:35.023Z,22.50
2019-05-19T02:55:06.547Z,21.97
2019-05-19T02:57:38.211Z,22.35
2019-05-19T03:00:10.675Z,22.62
2019-05-19T03:02:42.276Z,20.65
2019-05-19T03:05:14.132Z,21.15
2019-05-19T03:07:46.350Z,23.00
2019-05-19T03:10:18.329Z,21.23
2019-05-19T03:12:49.385Z,21.55
2019-05-19T03:15:22.276Z,21.68
2019-05-19T03:17:54.160Z,22.03
2019-05-19T03:20:25.211Z,20.45
2019-05-19T03:22:57.895Z,21.45
2019-05-19T03:25:28.875Z,21.07
2019-05-19T03:27:59.932Z,23.50
2019-05-19T03:30:58.317Z,25.68
2019-05-19T03:33:30.682Z,22.35
2019-05-19T03:36:02.591Z,22.48
2019-05-19T03:38:33.076Z,22.02
2019-05-19T03:41:04.060Z,22.53
2019-05-19T03:43:34.901Z,23.47
2019-05-19T03:46:05.635Z,23.25
2019-05-19T03:48:36.381Z,19.73
2019-05-19T03:51:07.228Z,22.42
2019-05-19T03:53:38.267Z,23.35
2019-05-19T03:56:09.706Z,23.83
2019-05-19T03:58:40.503Z,21.90
2019-05-19T04:01:11.292Z,26.10
2019-05-19T04:03:42.231Z,22.22
2019-05-19T04:06:12.849Z,25.37
2019-05-19T04:08:43.793Z,23.50
2019-05-19T04:11:17.250Z,23.90
2019-05-19T04:13:48.723Z,22.00
2019-05-19T04:16:20.821Z,21.80
2019-05-19T04:18:51.405Z,29.00
2019-05-19T04:21:22.194Z,26.07
2019-05-19T04:23:53.217Z,24.25
2019-05-19T04:26:24.165Z,28.85
2019-05-19T04:28:54.796Z,24.57
2019-05-19T04:31:25.490Z,21.77
2019-05-19T04:33:56.137Z,22.22
2019-05-19T04:36:27.512Z,22.60
2019-05-19T04:38:59.270Z,24.45
2019-05-19T04:41:32.892Z,24.85
2019-05-19T04:44:04.890Z,22.50
2019-05-19T04:46:37.234Z,22.65
2019-05-19T04:49:08.161Z,24.45
2019-05-19T04:51:40.428Z,22.87
2019-05-19T04:54:11.184Z,24.10
2019-05-19T04:56:43.505Z,22.17
2019-05-19T04:59:14.262Z,22.90
2019-05-19T05:01:45.581Z,20.77
2019-05-19T05:04:16.719Z,22.20
2019-05-19T05:06:47.626Z,21.85
2019-05-19T05:09:18.465Z,21.23
2019-05-19T05:11:51.841Z,22.13
2019-05-19T05:14:22.498Z,21.37
2019-05-19T05:16:53.465Z,21.73
2019-05-19T05:19:25.277Z,22.20
2019-05-19T05:21:59.831Z,22.87
2019-05-19T05:24:31.347Z,23.05
2019-05-19T05:27:03.432Z,24.07
2019-05-19T05:29:34.274Z,21.82
2019-05-19T05:32:06.748Z,21.17
2019-05-19T05:34:37.826Z,23.95
2019-05-19T05:37:10.128Z,20.77
2019-05-19T05:39:41.427Z,21.02
2019-05-19T05:42:12.815Z,20.90
2019-05-19T05:44:47.595Z,20.85
2019-05-19T05:47:18.227Z,20.15
2019-05-19T05:49:50.321Z,20.05
2019-05-19T05:52:21.103Z,22.20
2019-05-19T05:54:51.745Z,20.17
2019-05-19T05:57:23.200Z,18.77
2019-05-19T05:59:56.161Z,21.07
2019-05-19T06:02:26.934Z,20.40
2019-05-19T06:04:58.562Z,20.15
2019-05-19T06:07:29.416Z,19.73
2019-05-19T06:10:00.051Z,20.60
2019-05-19T06:12:31.114Z,25.50
2019-05-19T06:15:02.732Z,19.42
2019-05-19T06:17:33.852Z,17.33
2019-05-19T06:20:04.989Z,19.20
2019-05-19T06:22:35.904Z,18.85
2019-05-19T06:25:07.550Z,17.35
2019-05-19T06:27:38.608Z,18.05
2019-05-19T06:30:09.828Z,16.50
2019-05-19T06:32:47.851Z,15.93
2019-05-19T06:35:21.345Z,14.93
2019-05-19T06:37:53.183Z,15.58
2019-05-19T06:40:24.545Z,15.95
2019-05-19T06:42:57.209Z,14.05
2019-05-19T06:45:29.214Z,16.20
2019-05-19T06:48:03.437Z,15.53
2019-05-19T06:50:34.697Z,14.23
2019-05-19T06:53:13.895Z,14.57
2019-05-19T06:55:37.584Z,13.43
2019-05-19T06:58:08.582Z,13.30
2019-05-19T07:00:39.675Z,16.40
2019-05-19T07:03:13.214Z,13.72
2019-05-19T07:05:43.800Z,13.48
2019-05-19T07:08:17.807Z,13.30
2019-05-19T07:10:49.226Z,14.58
2019-05-19T07:13:20.663Z,14.53
2019-05-19T07:15:51.691Z,13.53
2019-05-19T07:18:23.120Z,13.20
2019-05-19T07:20:53.748Z,12.80
2019-05-19T07:23:28.634Z,12.50
2019-05-19T07:25:58.906Z,13.88
2019-05-19T07:28:29.585Z,14.70
2019-05-19T07:31:00.191Z,15.13
2019-05-19T07:33:33.268Z,15.50
2019-05-19T07:36:05.056Z,12.13
2019-05-19T07:38:37.724Z,14.03
2019-05-19T07:41:08.296Z,12.95
2019-05-19T07:43:39.086Z,16.25
2019-05-19T07:46:09.799Z,15.50
2019-05-19T07:48:40.854Z,13.78
2019-05-19T07:51:12.428Z,13.87
2019-05-19T07:53:43.494Z,15.95
2019-05-19T07:56:14.505Z,13.63
2019-05-19T07:58:46.626Z,12.98
2019-05-19T08:01:17.338Z,13.35
2019-05-19T08:03:48.576Z,14.33
2019-05-19T08:06:22.659Z,15.00
2019-05-19T08:08:53.369Z,13.80
2019-05-19T08:11:24.547Z,12.70
2019-05-19T08:13:55.459Z,14.15
2019-05-19T08:16:26.276Z,16.27
2019-05-19T08:18:57.061Z,12.88
2019-05-19T08:21:27.627Z,13.43
2019-05-19T08:24:00.779Z,11.83
2019-05-19T08:26:31.327Z,12.50
2019-05-19T08:29:02.569Z,14.65
2019-05-19T08:31:33.705Z,13.48
2019-05-19T08:34:05.010Z,13.68
2019-05-19T08:36:36.008Z,12.37
2019-05-19T08:39:08.239Z,12.95
2019-05-19T08:41:39.536Z,12.87
2019-05-19T08:44:10.415Z,14.65
2019-05-19T08:46:41.679Z,13.58
2019-05-19T08:49:12.637Z,14.83
2019-05-19T08:51:43.897Z,12.88
2019-05-19T08:54:18.448Z,11.95
2019-05-19T08:56:50.853Z,12.85
2019-05-19T08:59:22.165Z,12.78
2019-05-19T09:01:52.920Z,13.43
2019-05-19T09:04:24.506Z,11.23
2019-05-19T09:06:55.843Z,12.28
2019-05-19T09:09:28.163Z,14.17
2019-05-19T09:11:59.099Z,17.80
2019-05-19T09:14:30.554Z,11.43
2019-05-19T09:17:01.310Z,12.65
2019-05-19T09:19:32.646Z,10.73
2019-05-19T09:22:03.278Z,10.55
2019-05-19T09:24:37.286Z,10.50
2019-05-19T09:27:07.016Z,12.23
2019-05-19T09:29:37.947Z,13.78
2019-05-19T09:32:09.093Z,11.35
2019-05-19T09:34:39.682Z,14.47
2019-05-19T09:37:10.207Z,13.50
2019-05-19T09:39:42.883Z,13.35
2019-05-19T09:42:13.460Z,14.87
2019-05-19T09:44:52.785Z,13.28
2019-05-19T09:47:23.816Z,12.07
2019-05-19T09:49:54.721Z,11.80
2019-05-19T09:52:25.373Z,11.28
2019-05-19T09:54:56.523Z,15.03
2019-05-19T09:57:27.448Z,10.30
2019-05-19T10:00:00.084Z,11.75
2019-05-19T10:02:30.850Z,10.58
2019-05-19T10:05:01.426Z,12.70
2019-05-19T10:07:32.215Z,11.55
2019-05-19T10:10:16.430Z,11.53
2019-05-19T10:12:47.571Z,11.75
2019-05-19T10:15:18.892Z,12.47
2019-05-19T10:17:50.682Z,11.53
2019-05-19T10:20:21.559Z,10.83
2019-05-19T10:22:52.479Z,10.88
2019-05-19T10:25:26.235Z,10.88
2019-05-19T10:27:58.281Z,11.45
2019-05-19T10:30:29.335Z,10.75
2019-05-19T10:32:59.993Z,8.83
2019-05-19T10:35:31.071Z,8.73
2019-05-19T10:38:03.033Z,9.03
2019-05-19T10:40:33.963Z,8.58
2019-05-19T10:43:04.602Z,10.25
2019-05-19T10:45:35.655Z,8.10
2019-05-19T10:48:06.586Z,9.65
2019-05-19T10:50:38.641Z,10.45
2019-05-19T10:53:09.992Z,9.30
2019-05-19T10:55:44.798Z,8.53
2019-05-19T10:58:15.482Z,7.15
2019-05-19T11:00:47.696Z,8.53
2019-05-19T11:03:18.625Z,8.35
2019-05-19T11:05:50.508Z,7.30
2019-05-19T11:08:23.330Z,9.03
2019-05-19T11:10:54.570Z,12.73
2019-05-19T11:13:25.811Z,9.57
2019-05-19T11:15:59.083Z,10.63
2019-05-19T11:18:30.836Z,9.68
2019-05-19T11:21:02.021Z,9.80
2019-05-19T11:23:33.952Z,8.87
2019-05-19T11:26:04.807Z,9.30
2019-05-19T11:28:35.738Z,10.15
2019-05-19T11:31:07.085Z,8.63
2019-05-19T11:33:37.978Z,8.40
2019-05-19T11:36:09.482Z,8.85
2019-05-19T11:38:40.308Z,9.50
2019-05-19T11:41:10.877Z,11.63
2019-05-19T11:43:41.915Z,11.05
2019-05-19T11:46:13.114Z,9.78
2019-05-19T11:48:44.097Z,8.70
2019-05-19T11:51:15.060Z,7.83
2019-05-19T11:53:45.791Z,7.25
2019-05-19T11:56:16.703Z,10.80
2019-05-19T11:58:48.668Z,10.93
2019-05-19T12:01:19.568Z,8.73
2019-05-19T12:03:50.886Z,7.30
2019-05-19T12:06:36.007Z,7.60
2019-05-19T12:08:53.961Z,8.35
2019-05-19T12:11:24.931Z,7.65
2019-05-19T12:13:56.031Z,7.15
2019-05-19T12:16:26.803Z,7.35
2019-05-19T12:18:57.968Z,7.65
2019-05-19T12:21:28.942Z,7.55
2019-05-19T12:23:59.521Z,10.10
2019-05-19T12:26:30.069Z,8.60
2019-05-19T12:29:01.069Z,10.05
2019-05-19T12:31:32.195Z,9.20
2019-05-19T12:34:02.770Z,7.62
2019-05-19T12:36:33.322Z,7.20
2019-05-19T12:39:05.798Z,8.53
2019-05-19T12:41:36.804Z,7.77
2019-05-19T12:44:07.649Z,9.43
2019-05-19T12:46:39.324Z,8.33
2019-05-19T12:49:11.103Z,8.90
2019-05-19T12:51:44.865Z,7.13
2019-05-19T12:54:15.616Z,8.47
2019-05-19T12:56:46.481Z,9.58
2019-05-19T12:59:17.457Z,10.58
2019-05-19T13:01:50.476Z,8.90
2019-05-19T13:04:21.428Z,9.18
2019-05-19T13:06:53.911Z,7.70
2019-05-19T13:09:24.908Z,10.20
2019-05-19T13:11:57.762Z,7.22
2019-05-19T13:14:29.614Z,6.90
2019-05-19T13:17:00.614Z,7.97
2019-05-19T13:19:31.350Z,9.25
2019-05-19T13:22:02.331Z,9.98
2019-05-19T13:24:33.595Z,9.80
2019-05-19T13:27:06.150Z,7.67
2019-05-19T13:29:36.858Z,8.78
2019-05-19T13:32:08.952Z,7.80
2019-05-19T13:34:40.808Z,9.83
2019-05-19T13:37:12.231Z,10.78
2019-05-19T13:39:42.783Z,15.87
2019-05-19T13:42:13.291Z,8.75
2019-05-19T13:44:44.498Z,8.53
2019-05-19T13:47:15.207Z,11.20
2019-05-19T13:49:46.093Z,9.63
2019-05-19T13:52:17.679Z,8.30
2019-05-19T13:54:48.763Z,10.30
2019-05-19T13:57:19.765Z,9.10
2019-05-19T13:59:50.444Z,9.63
2019-05-19T14:02:22.168Z,10.93
2019-05-19T14:04:55.663Z,10.65
2019-05-19T14:07:26.221Z,10.65
2019-05-19T14:09:58.727Z,10.08
2019-05-19T14:12:30.096Z,11.00
2019-05-19T14:15:04.022Z,10.23
2019-05-19T14:17:33.827Z,9.98
2019-05-19T14:20:05.012Z,8.70
2019-05-19T14:22:36.078Z,13.13
2019-05-19T14:25:07.542Z,11.00
2019-05-19T14:27:38.864Z,11.63
2019-05-19T14:30:11.688Z,11.40
2019-05-19T14:32:42.844Z,12.10
2019-05-19T14:35:13.615Z,14.20
2019-05-19T14:37:44.520Z,31.75
2019-05-19T14:40:22.777Z,14.45
2019-05-19T14:42:57.423Z,13.22
2019-05-19T14:45:29.187Z,12.45
2019-05-19T14:48:00.003Z,15.32
2019-05-19T14:50:31.340Z,20.25
2019-05-19T14:53:02.226Z,15.83
2019-05-19T14:55:33.036Z,13.40
2019-05-19T14:58:03.533Z,13.50
2019-05-19T15:00:35.264Z,16.17
2019-05-19T15:03:06.063Z,14.37
2019-05-19T15:05:37.220Z,15.25
2019-05-19T15:08:08.659Z,16.50
2019-05-19T15:10:39.302Z,12.50
2019-05-19T15:13:10.415Z,15.83
2019-05-19T15:15:41.556Z,11.80
2019-05-19T15:18:12.953Z,17.27
2019-05-19T15:20:47.901Z,12.85
2019-05-19T15:23:20.130Z,12.13
2019-05-19T15:25:50.835Z,11.93
2019-05-19T15:28:21.737Z,10.98
2019-05-19T15:30:52.503Z,14.10
2019-05-19T15:33:24.345Z,11.75
2019-05-19T15:41:12.262Z,12.30
2019-05-19T15:43:42.861Z,10.72
2019-05-19T17:15:06.690Z,13.62
2019-05-19T17:17:37.327Z,17.70
2019-05-19T17:20:08.857Z,13.18
2019-05-19T17:22:39.722Z,10.83
2019-05-19T17:25:12.781Z,9.70
2019-05-19T17:27:43.464Z,12.23
2019-05-19T17:30:17.002Z,10.20
2019-05-19T17:32:47.911Z,11.97
2019-05-19T17:35:18.647Z,9.95
2019-05-19T17:37:49.970Z,12.20
2019-05-19T17:40:21.903Z,12.60
2019-05-19T17:42:53.108Z,11.33
2019-05-19T17:45:23.870Z,10.88
2019-05-19T17:48:08.821Z,15.35
2019-05-19T17:50:35.945Z,11.48
2019-05-19T17:53:07.338Z,11.18
2019-05-19T17:55:38.436Z,11.12
2019-05-19T17:58:08.995Z,12.65
2019-05-19T18:00:40.962Z,12.03
2019-05-19T18:03:15.016Z,13.30
2019-05-19T18:05:46.071Z,10.50
2019-05-19T18:08:17.273Z,9.63
2019-05-19T18:10:48.383Z,13.55
2019-05-19T18:13:19.180Z,17.40
2019-05-19T18:15:51.030Z,11.12
2019-05-19T18:18:23.323Z,11.33
2019-05-19T18:20:56.058Z,12.80
2019-05-19T18:23:26.946Z,15.45
2019-05-19T18:26:00.729Z,12.65
2019-05-19T18:28:31.588Z,11.23
2019-05-19T18:31:03.144Z,12.18
2019-05-19T18:33:35.307Z,10.10
2019-05-19T18:36:06.127Z,11.57
2019-05-19T18:38:37.702Z,10.40
2019-05-19T18:41:09.352Z,10.23
2019-05-19T18:43:40.388Z,13.65
2019-05-19T18:46:11.190Z,11.12
2019-05-19T18:48:41.861Z,11.68
2019-05-19T18:51:12.413Z,14.80
2019-05-19T18:53:43.471Z,12.23
2019-05-19T18:56:14.138Z,14.00
2019-05-19T18:58:44.956Z,10.10
2019-05-19T19:01:18.640Z,11.15
2019-05-19T19:03:49.683Z,10.07
2019-05-19T19:06:20.676Z,10.38
2019-05-19T19:08:52.451Z,15.18
2019-05-19T19:11:23.500Z,8.78
2019-05-19T19:13:54.300Z,13.98
2019-05-19T19:16:25.609Z,17.05
2019-05-19T19:18:56.226Z,18.45
2019-05-19T19:21:26.818Z,11.65
2019-05-19T19:23:57.506Z,16.15
2019-05-19T19:26:28.454Z,16.05
2019-05-19T19:29:00.119Z,12.95
2019-05-19T19:31:31.397Z,18.33
2019-05-19T19:34:02.080Z,26.07
2019-05-19T19:36:33.005Z,20.37
2019-05-19T19:39:05.324Z,19.07
2019-05-19T19:41:36.367Z,16.62
2019-05-19T19:44:07.188Z,16.70
2019-05-19T19:46:38.399Z,10.85
2019-05-19T19:49:10.067Z,10.70
2019-05-19T19:51:41.732Z,16.82
2019-05-19T19:54:12.981Z,10.40
2019-05-19T19:56:45.090Z,12.68
2019-05-19T19:59:15.844Z,18.70
2019-05-19T20:01:46.791Z,16.67
2019-05-19T20:04:17.824Z,39.65
2019-05-19T20:06:48.363Z,33.33
2019-05-19T20:09:21.258Z,13.20
2019-05-19T20:11:51.827Z,10.48
2019-05-19T20:14:22.759Z,11.40
2019-05-19T20:16:53.903Z,12.55
2019-05-19T20:19:24.568Z,10.38
2019-05-19T20:21:55.165Z,15.75
2019-05-19T20:24:26.096Z,13.30
2019-05-19T20:26:56.656Z,16.48
2019-05-19T20:29:27.318Z,18.05
2019-05-19T20:31:57.873Z,15.78
2019-05-19T20:34:30.235Z,14.93
2019-05-19T20:37:00.814Z,14.53
2019-05-19T20:39:31.481Z,15.93
2019-05-19T20:42:02.040Z,16.25
2019-05-19T20:44:33.654Z,18.60
2019-05-19T20:47:05.487Z,18.43
2019-05-19T20:49:36.332Z,19.23
2019-05-19T20:52:06.832Z,14.45
2019-05-19T20:54:37.639Z,21.50
2019-05-19T20:57:08.218Z,15.68
2019-05-19T20:59:39.155Z,12.05
2019-05-19T21:02:09.835Z,16.37
2019-05-19T21:04:40.405Z,20.80
2019-05-19T21:07:11.496Z,15.53
2019-05-19T21:09:42.470Z,13.10
2019-05-19T21:12:13.001Z,19.87
2019-05-19T21:14:43.517Z,25.90
2019-05-19T21:17:15.744Z,19.17
2019-05-19T21:19:46.652Z,17.77
2019-05-19T21:22:18.359Z,18.98
2019-05-19T21:24:49.497Z,15.23
2019-05-19T21:27:21.254Z,15.98
2019-05-19T21:29:51.856Z,11.88
2019-05-19T21:32:22.767Z,15.40
2019-05-19T21:34:53.659Z,13.85
2019-05-19T21:37:24.101Z,15.25
2019-05-19T21:39:55.036Z,13.95
2019-05-19T21:42:26.092Z,12.53
2019-05-19T21:44:57.133Z,12.78
2019-05-19T21:47:27.918Z,19.35
2019-05-19T21:49:59.287Z,29.75
2019-05-19T21:52:29.785Z,14.10
2019-05-19T21:55:01.400Z,16.93
2019-05-19T21:57:32.304Z,12.90
2019-05-19T22:00:03.399Z,18.35
2019-05-19T22:02:35.241Z,14.00
2019-05-19T22:05:06.051Z,16.90
2019-05-19T22:07:58.238Z,16.75
2019-05-19T22:10:30.095Z,18.87
2019-05-19T22:13:01.445Z,14.33
2019-05-19T22:15:31.860Z,14.95
2019-05-19T22:18:02.505Z,14.58
2019-05-19T22:20:34.134Z,15.93
2019-05-19T22:23:04.645Z,19.03
2019-05-19T22:25:35.543Z,17.02
2019-05-19T22:28:06.577Z,28.35
2019-05-19T22:30:38.423Z,19.73
2019-05-19T22:33:10.880Z,13.62
2019-05-19T22:35:41.859Z,22.27
2019-05-19T22:38:13.151Z,19.52
2019-05-19T22:40:43.759Z,22.65
2019-05-19T22:43:14.568Z,27.27
2019-05-19T22:45:45.503Z,26.68
2019-05-19T22:48:16.264Z,18.20
2019-05-19T22:50:47.169Z,17.87
2019-05-19T22:53:17.708Z,14.55
2019-05-19T22:55:48.664Z,15.83
2019-05-19T22:58:19.294Z,21.60
2019-05-19T23:00:50.898Z,18.37
2019-05-19T23:03:21.524Z,14.90
2019-05-19T23:05:52.101Z,17.90
2019-05-19T23:08:22.748Z,17.12
2019-05-19T23:10:53.497Z,14.70
2019-05-19T23:13:24.616Z,13.03
2019-05-19T23:15:55.211Z,15.77
2019-05-19T23:18:26.360Z,15.15
2019-05-19T23:20:56.912Z,18.30
2019-05-19T23:23:27.563Z,22.87
2019-05-19T23:25:58.335Z,13.30
2019-05-19T23:28:29.023Z,14.40
2019-05-19T23:30:59.657Z,14.03
2019-05-19T23:33:31.204Z,14.25
2019-05-19T23:36:01.826Z,16.90
2019-05-19T23:38:32.457Z,14.53
2019-05-19T23:41:03.287Z,13.22
2019-05-19T23:43:33.863Z,13.83
2019-05-19T23:46:04.547Z,13.83
2019-05-19T23:48:35.112Z,14.73
2019-05-19T23:51:06.430Z,13.50
2019-05-19T23:53:38.778Z,13.03
2019-05-19T23:56:09.463Z,13.30
2019-05-19T23:58:40.111Z,14.80
